Bern, Kansas
Current Conditions -  °F | °C
As of 6:53 PM on Saturday 25 Oct 2014 (Local Time) from KFNB Reporting Station
Clear Clear  
Wind Chill: 70°   Ceiling: Unl
Heat Index: 70°   Visibility: 8mi
Dew Point: 44°   Wind: 3mph
Humidity: 39%   Direction: 80°E
Pressure: 30"   Gusts: NA
Location:  39.96°N, 95.97°W
Report Text: KFNB 252353Z AUTO 08003KT 8SM CLR 21/07 A3000 RMK AO2 SLP158 T02110067 10261 20211 56008
Loading
Personal Weather Stations






























Interactive Weather Map
Tropical Storm Tracking
New forecast layout! Learn more

10-Day Weather Forecast

Advertisements
Track Severe Weather on mobile